Time;durP1;ratioP1;P1;durP2;ratioP2;P2;SDS_P1;SDS_P2;PMS_P1;PMS_P2;Temp;Humidity;BMP_temperature;BMP_pressure;BME280_temperature;BME280_humidity;BME280_pressure;Samples;Min_cycle;Max_cycle;Signal;HPM_P1;HPM_P2
2022/09/22 00:01:45;;;;;;;4.88;2.90;;;;;;;19.41;51.41;102612.53;5070292;28;20048;-77
2022/09/22 00:04:12;;;;;;;4.53;3.10;;;;;;;19.42;51.42;102613.38;5069483;28;20052;-77
2022/09/22 00:06:42;;;;;;;4.78;3.03;;;;;;;19.40;51.31;102608.16;5087802;28;20055;-77
2022/09/22 00:09:10;;;;;;;6.03;3.10;;;;;;;19.40;51.53;102608.16;5085360;28;20052;-77
2022/09/22 00:11:39;;;;;;;5.55;2.95;;;;;;;19.41;51.27;102607.31;5087775;28;20545;-77
2022/09/22 00:14:14;;;;;;;5.40;3.33;;;;;;;19.40;51.43;102600.34;5044396;28;1254127;-77
2022/09/22 00:19:18;;;;;;;4.97;2.80;;;;;;;19.39;51.46;102597.69;5086696;28;20059;-75
2022/09/22 00:24:09;;;;;;;4.65;3.20;;;;;;;19.38;51.29;102594.22;5095414;28;20394;-76
2022/09/22 00:26:36;;;;;;;4.10;2.80;;;;;;;19.38;51.15;102590.72;5070777;28;20047;-74
2022/09/22 00:29:03;;;;;;;4.47;2.92;;;;;;;19.39;51.36;102582.03;5085323;28;20054;-74
2022/09/22 00:31:29;;;;;;;4.93;3.03;;;;;;;19.36;51.34;102580.28;5088948;28;20039;-74
2022/09/22 00:33:55;;;;;;;3.83;2.88;;;;;;;19.37;51.40;102579.41;5088849;28;20109;-77
2022/09/22 00:36:24;;;;;;;4.55;2.85;;;;;;;19.35;51.23;102577.63;5093080;28;20043;-75
2022/09/22 00:38:51;;;;;;;3.40;2.60;;;;;;;19.36;51.30;102579.38;5090785;28;20051;-74
2022/09/22 00:41:20;;;;;;;3.72;2.65;;;;;;;19.36;51.34;102579.38;5094534;28;20036;-74
2022/09/22 00:43:49;;;;;;;3.72;2.80;;;;;;;19.36;51.31;102582.88;5094601;28;20105;-76
2022/09/22 00:46:17;;;;;;;3.40;2.75;;;;;;;19.35;51.09;102581.13;5091320;28;20120;-75
2022/09/22 00:51:12;;;;;;;4.13;3.08;;;;;;;19.36;51.22;102575.06;5090006;28;20647;-74
2022/09/22 00:53:38;;;;;;;4.63;3.13;;;;;;;19.34;51.23;102571.56;5090848;28;20091;-74
2022/09/22 00:56:09;;;;;;;4.07;2.63;;;;;;;19.33;51.28;102570.66;5091418;28;20068;-76
2022/09/22 00:58:43;;;;;;;5.70;2.85;;;;;;;19.33;51.41;102568.03;5097252;28;20056;-76
2022/09/22 01:01:08;;;;;;;4.15;2.67;;;;;;;19.33;51.26;102569.78;5092260;28;20055;-76
2022/09/22 01:03:38;;;;;;;4.55;2.70;;;;;;;19.32;51.36;102565.44;5066990;28;20056;-74
2022/09/22 01:06:06;;;;;;;4.10;2.78;;;;;;;19.32;51.36;102558.47;5086296;28;20048;-74
2022/09/22 01:08:33;;;;;;;5.13;2.80;;;;;;;19.32;51.30;102555.88;5090455;28;20444;-74
2022/09/22 01:10:59;;;;;;;3.25;2.47;;;;;;;19.31;51.35;102555.84;5088183;28;20444;-74
2022/09/22 01:19:20;;;;;;;4.32;2.80;;;;;;;19.31;51.21;102548.00;5061031;28;20052;-74
2022/09/22 01:21:50;;;;;;;3.80;2.80;;;;;;;19.30;51.29;102544.53;5071368;28;20186;-75
2022/09/22 01:24:40;;;;;;;3.17;2.60;;;;;;;19.30;51.25;102541.91;5071150;28;20049;-76
2022/09/22 01:27:30;;;;;;;4.82;2.72;;;;;;;19.30;51.32;102538.44;5087411;28;20124;-75
2022/09/22 01:30:10;;;;;;;3.33;2.33;;;;;;;19.30;51.19;102541.06;5089363;28;20058;-75
2022/09/22 01:35:16;;;;;;;;;;;;;;;19.30;51.29;102533.22;5089296;28;20131;-76
2022/09/22 01:40:30;;;;;;;3.58;2.70;;;;;;;19.27;51.15;102526.25;5088728;28;20048;-74
2022/09/22 01:43:20;;;;;;;3.40;2.53;;;;;;;19.26;51.37;102534.03;5088896;28;20040;-75
2022/09/22 01:45:47;;;;;;;3.50;2.30;;;;;;;19.27;51.37;102531.47;5089797;28;20044;-75
2022/09/22 01:48:19;;;;;;;3.83;2.50;;;;;;;19.26;51.26;102521.88;5089790;28;20635;-76
2022/09/22 01:50:53;;;;;;;4.32;2.65;;;;;;;19.27;51.24;102523.63;5089127;28;20055;-75
2022/09/22 01:53:23;;;;;;;3.75;2.30;;;;;;;19.26;51.31;102521.88;5087942;28;20056;-75
2022/09/22 01:55:56;;;;;;;4.13;2.60;;;;;;;19.26;51.31;102515.78;5088281;28;20044;-75
2022/09/22 01:58:33;;;;;;;4.38;2.60;;;;;;;19.25;51.32;102519.22;5088857;28;20550;-76
2022/09/22 02:01:12;;;;;;;4.28;2.50;;;;;;;19.26;51.21;102513.16;5088594;28;20414;-76
2022/09/22 02:06:14;;;;;;;4.40;2.67;;;;;;;19.25;51.17;102508.78;5088605;28;20047;-76
2022/09/22 02:11:15;;;;;;;3.55;2.45;;;;;;;19.24;51.33;102501.84;5096919;28;20044;-76
2022/09/22 02:13:42;;;;;;;3.00;2.22;;;;;;;19.26;51.40;102505.34;5090609;28;20452;-74
2022/09/22 02:16:11;;;;;;;3.33;2.30;;;;;;;19.23;51.29;102505.31;5086994;28;20040;-75
2022/09/22 02:21:10;;;;;;;4.45;2.60;;;;;;;19.23;51.15;102500.09;5087820;28;20054;-76
2022/09/22 02:23:35;;;;;;;3.40;2.40;;;;;;;19.22;51.33;102496.59;5074650;28;20123;-75
2022/09/22 02:26:03;;;;;;;3.28;2.15;;;;;;;19.21;51.33;102492.25;5084187;28;20469;-74
2022/09/22 02:28:30;;;;;;;2.95;2.28;;;;;;;19.20;51.20;102498.31;5089364;28;20063;-76
2022/09/22 02:30:57;;;;;;;3.13;2.40;;;;;;;19.21;51.19;102493.97;5086669;28;20101;-76
2022/09/22 02:33:25;;;;;;;3.00;2.20;;;;;;;19.21;51.43;102488.75;5089102;28;20040;-75
2022/09/22 02:36:01;;;;;;;3.15;2.28;;;;;;;19.21;51.27;102489.63;5088516;28;20498;-75
2022/09/22 02:41:37;;;;;;;2.65;1.85;;;;;;;19.20;51.17;102493.09;5097167;28;20044;-75
2022/09/22 02:44:17;;;;;;;3.80;2.10;;;;;;;19.19;51.29;102487.88;5088111;28;20060;-75
2022/09/22 02:49:14;;;;;;;2.78;2.20;;;;;;;19.19;51.24;102482.66;5087989;28;20036;-76
2022/09/22 02:51:41;;;;;;;3.70;2.22;;;;;;;19.19;51.14;102472.22;5090097;28;20122;-75
2022/09/22 02:54:06;;;;;;;2.47;1.85;;;;;;;19.19;51.18;102480.03;5086672;28;20452;-76
2022/09/22 02:56:31;;;;;;;3.20;2.20;;;;;;;19.18;51.10;102476.53;5071418;28;20131;-77
2022/09/22 02:58:57;;;;;;;2.80;1.90;;;;;;;19.18;51.32;102475.66;5087656;28;20498;-76
2022/09/22 03:01:22;;;;;;;3.78;1.98;;;;;;;19.17;51.14;102476.53;5089736;28;20109;-75
2022/09/22 03:03:48;;;;;;;2.60;2.00;;;;;;;19.16;51.14;102475.66;5088733;28;20051;-76
2022/09/22 03:06:13;;;;;;;4.03;2.28;;;;;;;19.16;51.48;102477.38;5067583;28;20083;-77
2022/09/22 03:08:38;;;;;;;2.42;1.83;;;;;;;19.15;51.15;102466.09;5084271;28;20494;-75
2022/09/22 03:11:04;;;;;;;3.15;2.30;;;;;;;19.16;51.07;102473.03;5069115;28;20090;-76
2022/09/22 03:13:29;;;;;;;4.35;2.15;;;;;;;19.16;51.10;102475.66;5071624;28;20109;-76
2022/09/22 03:15:55;;;;;;;2.78;2.00;;;;;;;19.15;51.25;102473.03;5069296;28;20055;-76
2022/09/22 03:18:20;;;;;;;3.85;2.28;;;;;;;19.14;51.15;102469.56;5088161;28;20048;-74
2022/09/22 03:20:45;;;;;;;3.55;1.90;;;;;;;19.15;51.33;102462.59;5071344;28;20135;-74
2022/09/22 03:23:11;;;;;;;3.22;2.10;;;;;;;19.15;51.17;102463.47;5087751;28;20505;-76
2022/09/22 03:25:36;;;;;;;3.22;2.00;;;;;;;19.14;51.29;102461.72;5088910;28;20482;-76
2022/09/22 03:28:02;;;;;;;3.08;1.95;;;;;;;19.13;51.28;102465.19;5087785;28;20052;-76
2022/09/22 03:30:27;;;;;;;2.80;1.95;;;;;;;19.13;51.31;102456.50;5074919;28;20053;-76
2022/09/22 03:32:53;;;;;;;3.80;1.90;;;;;;;19.13;51.22;102454.75;5081269;28;20036;-73
2022/09/22 03:35:18;;;;;;;3.65;1.90;;;;;;;19.15;51.36;102457.38;5088213;28;20076;-75
2022/09/22 03:40:09;;;;;;;3.85;1.90;;;;;;;19.13;51.02;102452.13;5087657;28;20052;-76
2022/09/22 03:42:34;;;;;;;3.05;1.85;;;;;;;19.13;51.26;102451.28;5093683;28;20072;-76
2022/09/22 03:45:00;;;;;;;2.72;1.60;;;;;;;19.12;51.12;102450.41;5069286;28;20143;-74
2022/09/22 03:47:26;;;;;;;2.47;1.90;;;;;;;19.13;51.08;102453.88;5089502;28;20490;-75
2022/09/22 03:49:51;;;;;;;2.88;1.90;;;;;;;19.12;51.14;102453.00;5070663;28;20081;-76
2022/09/22 03:52:16;;;;;;;3.97;1.95;;;;;;;19.11;51.19;102454.72;5072080;28;20128;-74
2022/09/22 03:54:42;;;;;;;2.53;1.90;;;;;;;19.10;51.14;102458.22;5088633;28;20072;-73
2022/09/22 03:57:07;;;;;;;3.10;2.00;;;;;;;19.09;51.03;102453.84;5087989;28;20100;-75
2022/09/22 03:59:33;;;;;;;3.03;2.08;;;;;;;19.09;51.53;102453.84;5071197;28;20048;-76
2022/09/22 04:01:59;;;;;;;4.78;1.98;;;;;;;19.10;51.20;102454.72;5085774;28;20059;-75
2022/09/22 04:04:25;;;;;;;2.42;1.80;;;;;;;19.10;51.21;102450.38;5087679;28;20086;-76
2022/09/22 04:06:50;;;;;;;3.40;2.03;;;;;;;19.09;51.22;102448.63;5086231;28;20131;-75
2022/09/22 04:09:17;;;;;;;2.47;1.70;;;;;;;19.09;51.17;102445.13;5090994;28;20494;-75
2022/09/22 04:11:43;;;;;;;2.58;1.80;;;;;;;19.09;51.13;102442.53;5091469;28;20414;-75
2022/09/22 04:14:08;;;;;;;2.55;1.80;;;;;;;19.08;51.17;102452.09;5092763;28;20051;-75
2022/09/22 04:16:34;;;;;;;2.63;1.65;;;;;;;19.08;51.22;102449.50;5097976;28;20444;-76
2022/09/22 04:18:59;;;;;;;2.47;1.63;;;;;;;19.09;51.22;102447.75;5072684;28;20427;-75
2022/09/22 04:21:25;;;;;;;2.63;1.70;;;;;;;19.09;51.04;102451.22;5091528;28;20055;-76
2022/09/22 04:23:50;;;;;;;2.78;1.88;;;;;;;19.07;51.16;102445.13;5090006;28;20070;-77
2022/09/22 04:26:15;;;;;;;2.67;1.63;;;;;;;19.06;51.06;102451.22;5090756;28;20044;-75
2022/09/22 04:28:41;;;;;;;3.05;1.80;;;;;;;19.07;51.14;102452.06;5047760;28;1239895;-74
2022/09/22 04:31:06;;;;;;;4.22;1.73;;;;;;;19.06;51.19;102443.38;5090516;28;20870;-76
2022/09/22 04:33:31;;;;;;;2.10;1.52;;;;;;;19.06;51.12;102445.13;5085857;28;20056;-75
2022/09/22 04:35:57;;;;;;;2.70;1.90;;;;;;;19.04;51.00;102441.63;5085639;28;20486;-75
2022/09/22 04:38:22;;;;;;;2.95;1.80;;;;;;;19.05;51.04;102445.97;5092566;28;20420;-75
2022/09/22 04:40:48;;;;;;;3.33;1.85;;;;;;;19.04;51.20;102442.50;5091155;28;20051;-75
2022/09/22 04:43:14;;;;;;;2.17;1.73;;;;;;;19.05;51.02;102443.34;5091897;28;20135;-76
2022/09/22 04:45:42;;;;;;;2.92;1.73;;;;;;;19.03;51.09;102447.69;5092436;28;20162;-74
2022/09/22 04:48:08;;;;;;;2.33;1.65;;;;;;;19.03;50.98;102434.63;5088743;28;20052;-76
2022/09/22 04:50:33;;;;;;;2.15;1.60;;;;;;;19.03;51.15;102437.25;5090719;28;20055;-75
2022/09/22 04:52:58;;;;;;;3.72;1.67;;;;;;;19.04;51.09;102436.41;5072069;28;20048;-77
2022/09/22 04:55:24;;;;;;;2.13;1.48;;;;;;;19.02;51.26;102433.78;5092419;28;20040;-75
2022/09/22 04:57:51;;;;;;;2.58;1.67;;;;;;;19.02;51.02;102430.28;5089531;28;20052;-76
2022/09/22 05:00:18;;;;;;;2.83;1.70;;;;;;;19.02;51.18;102435.50;5091652;28;20032;-77
2022/09/22 05:02:43;;;;;;;3.00;1.58;;;;;;;19.02;51.14;102435.50;5091871;28;20048;-75
2022/09/22 05:05:09;;;;;;;2.22;1.58;;;;;;;19.02;51.06;102438.97;5089916;28;20059;-76
2022/09/22 05:07:35;;;;;;;2.38;1.70;;;;;;;19.02;51.03;102438.13;5090925;28;20078;-76
2022/09/22 05:10:01;;;;;;;2.55;1.60;;;;;;;19.01;51.03;102434.66;5089547;28;20071;-76
2022/09/22 05:12:27;;;;;;;10.27;4.53;;;;;;;19.05;51.09;102433.81;5090681;28;20469;-78
2022/09/22 05:14:53;;;;;;;28.35;10.98;;;;;;;19.17;50.76;102437.41;5071686;28;20520;-77
2022/09/22 05:17:18;;;;;;;32.42;11.52;;;;;;;19.22;50.84;102440.91;5048771;28;20080;-75
2022/09/22 05:19:45;;;;;;;26.85;9.55;;;;;;;19.14;51.03;102438.25;5048263;28;20498;-74
2022/09/22 05:22:09;;;;;;;21.52;8.18;;;;;;;18.90;50.91;102433.63;5091930;28;20055;-76
2022/09/22 05:24:34;;;;;;;21.25;8.40;;;;;;;18.76;50.38;102435.22;5093666;28;20051;-76
2022/09/22 05:27:00;;;;;;;20.52;7.30;;;;;;;18.67;50.54;102431.63;5072631;28;20104;-76
2022/09/22 05:29:26;;;;;;;19.80;6.80;;;;;;;18.65;49.26;102441.16;5090446;28;20047;-77
2022/09/22 05:31:51;;;;;;;19.98;6.65;;;;;;;18.62;48.93;102435.06;5089935;28;20395;-77
2022/09/22 05:34:17;;;;;;;19.02;6.55;;;;;;;18.63;48.67;102436.78;5091291;28;20094;-75
2022/09/22 05:36:42;;;;;;;13.13;5.38;;;;;;;18.60;48.42;102434.16;5090153;28;20114;-75
2022/09/22 05:39:07;;;;;;;11.23;5.20;;;;;;;18.60;47.93;102436.78;5053968;28;20052;-77
2022/09/22 05:41:33;;;;;;;13.30;5.15;;;;;;;18.58;48.14;102434.13;5056436;28;20059;-76
2022/09/22 05:43:58;;;;;;;15.05;5.65;;;;;;;18.55;47.51;102436.69;5087797;28;20555;-76
2022/09/22 05:46:23;;;;;;;11.18;4.88;;;;;;;18.55;47.65;102443.66;5091144;28;20420;-74
2022/09/22 05:48:49;;;;;;;13.35;5.57;;;;;;;18.56;48.50;102438.47;5071683;28;20393;-80
2022/09/22 05:51:14;;;;;;;10.93;5.00;;;;;;;18.58;47.38;102438.50;5055681;28;20060;-80
2022/09/22 05:53:39;;;;;;;14.80;4.85;;;;;;;18.59;48.70;102438.47;5056612;28;20036;-77
2022/09/22 05:56:05;;;;;;;17.92;5.22;;;;;;;18.60;47.82;102440.25;5070598;28;20147;-78
2022/09/22 05:58:30;;;;;;;24.60;6.38;;;;;;;18.60;46.31;102442.84;5056836;28;20066;-78
2022/09/22 06:00:59;;;;;;;21.95;6.20;;;;;;;18.57;46.67;102436.72;5087497;28;20048;-77
2022/09/22 06:03:25;;;;;;;21.83;6.50;;;;;;;18.56;46.53;102442.81;5073939;28;20043;-79
2022/09/22 06:05:50;;;;;;;30.20;7.75;;;;;;;18.53;46.51;102435.84;5088350;28;20044;-78
2022/09/22 06:08:16;;;;;;;18.73;6.10;;;;;;;18.56;46.13;102438.47;5072679;28;20058;-77
2022/09/22 06:10:44;;;;;;;25.83;6.28;;;;;;;18.56;46.21;102432.38;5084542;28;20494;-76
2022/09/22 06:13:10;;;;;;;19.88;6.47;;;;;;;18.56;46.02;102442.81;5069714;28;21632;-75
2022/09/22 06:15:36;;;;;;;26.92;6.15;;;;;;;18.57;46.24;102445.41;5071736;28;20067;-76
2022/09/22 06:18:05;;;;;;;16.00;5.20;;;;;;;18.68;47.93;102449.03;5074037;28;20055;-74
2022/09/22 06:20:31;;;;;;;12.82;4.50;;;;;;;18.79;47.77;102445.69;5094236;28;20055;-76
2022/09/22 06:22:58;;;;;;;12.65;4.97;;;;;;;18.87;47.40;102438.84;5091641;28;20048;-75
2022/09/22 06:25:24;;;;;;;17.95;4.97;;;;;;;18.94;47.64;102430.19;5090843;28;20603;-77
2022/09/22 06:28:04;;;;;;;10.85;4.82;;;;;;;19.00;47.62;102434.63;5090003;28;20056;-76
2022/09/22 06:30:31;;;;;;;11.38;4.32;;;;;;;19.04;47.51;102432.06;5088867;28;20048;-78
2022/09/22 06:32:56;;;;;;;10.60;4.22;;;;;;;19.09;47.92;102430.34;5088950;28;20383;-77
2022/09/22 06:35:22;;;;;;;11.43;4.22;;;;;;;19.14;47.89;102429.53;5092573;28;20040;-77
2022/09/22 06:37:55;;;;;;;13.40;4.25;;;;;;;19.18;47.80;102424.34;5090739;28;20443;-77
2022/09/22 06:40:21;;;;;;;10.82;3.83;;;;;;;19.23;47.87;102427.88;5088542;28;20048;-76
2022/09/22 06:42:48;;;;;;;11.05;4.00;;;;;;;19.32;47.53;102424.47;5072057;28;20052;-76
2022/09/22 06:45:14;;;;;;;9.57;4.15;;;;;;;19.50;47.28;102422.00;5072530;28;20105;-76
2022/09/22 06:47:41;;;;;;;9.95;4.43;;;;;;;19.82;46.63;102421.41;5056015;28;20111;-77
2022/09/22 06:50:08;;;;;;;9.70;3.67;;;;;;;20.11;46.00;102426.78;5069588;28;20048;-79
2022/09/22 06:52:33;;;;;;;11.10;4.03;;;;;;;20.29;45.74;102425.13;5088936;28;20048;-79
2022/09/22 06:54:59;;;;;;;9.25;3.88;;;;;;;20.40;45.37;102422.53;5084466;28;20052;-79
2022/09/22 06:57:26;;;;;;;8.20;4.22;;;;;;;20.45;45.14;102426.06;5084172;28;20502;-78
2022/09/22 06:59:52;;;;;;;9.90;4.10;;;;;;;20.64;44.84;102414.81;5086817;28;20052;-79
2022/09/22 07:02:18;;;;;;;9.57;4.10;;;;;;;20.81;44.47;102411.38;5067548;28;20138;-78
2022/09/22 07:04:47;;;;;;;9.20;4.38;;;;;;;20.87;44.27;102414.88;5086324;28;20044;-77
2022/09/22 07:07:12;;;;;;;7.15;4.00;;;;;;;21.07;43.68;102414.03;5063845;28;20055;-79
2022/09/22 07:09:37;;;;;;;8.48;4.00;;;;;;;21.17;43.59;102408.78;5068156;28;20056;-78
2022/09/22 07:12:05;;;;;;;9.55;4.03;;;;;;;21.18;43.52;102409.66;5069015;28;20052;-79
2022/09/22 07:14:31;;;;;;;10.65;3.80;;;;;;;21.22;43.34;102407.91;5071861;28;20139;-78
2022/09/22 07:16:56;;;;;;;9.48;4.15;;;;;;;21.24;43.49;102414.03;5087534;28;20147;-79
2022/09/22 07:19:22;;;;;;;6.63;3.65;;;;;;;21.37;43.27;102411.41;5040047;28;20553;-78
2022/09/22 07:21:47;;;;;;;7.80;3.65;;;;;;;21.42;43.06;102411.44;5031308;28;20118;-78
2022/09/22 07:24:13;;;;;;;6.20;3.47;;;;;;;21.45;43.09;102408.81;5088392;28;20043;-78
2022/09/22 07:26:39;;;;;;;7.22;3.78;;;;;;;21.55;42.83;102404.44;5027496;28;20045;-76
2022/09/22 07:29:10;;;;;;;8.75;3.70;;;;;;;21.53;42.89;102408.81;5059515;28;20048;-78
2022/09/22 07:31:36;;;;;;;5.30;3.60;;;;;;;21.46;42.92;102404.44;5089516;28;20052;-79
2022/09/22 07:34:02;;;;;;;7.53;3.80;;;;;;;21.42;43.09;102407.94;5086140;28;20036;-78
2022/09/22 07:36:30;;;;;;;6.80;3.67;;;;;;;20.81;44.50;102406.13;5089563;28;20048;-78
2022/09/22 07:39:02;;;;;;;7.35;3.95;;;;;;;20.28;45.98;102407.69;5085890;28;20040;-76
2022/09/22 07:41:29;;;;;;;6.95;3.63;;;;;;;20.06;46.59;102412.81;5089207;28;20047;-78
2022/09/22 07:45:11;;;;;;;5.80;3.38;;;;;;;19.96;46.96;102410.16;5088872;28;20047;-77
2022/09/22 07:46:43;;;;;;;6.20;3.40;;;;;;;20.28;46.16;102410.31;5089394;28;20070;-77
2022/09/22 07:49:08;;;;;;;6.15;3.25;;;;;;;20.95;44.66;102404.41;5091089;28;20569;-76
2022/09/22 07:51:34;;;;;;;5.55;3.38;;;;;;;21.20;43.85;102407.03;5068697;28;20425;-76
2022/09/22 07:54:08;;;;;;;6.40;3.00;;;;;;;21.20;43.86;102407.03;5076586;28;20478;-78
2022/09/22 07:56:39;;;;;;;4.78;3.22;;;;;;;21.11;44.20;102405.31;5082658;28;20044;-78
2022/09/22 07:59:09;;;;;;;8.85;3.53;;;;;;;21.01;44.31;102401.78;5091824;28;20056;-78
2022/09/22 08:01:36;;;;;;;6.53;3.55;;;;;;;20.84;44.75;102404.41;5093603;28;20052;-77
2022/09/22 08:04:03;;;;;;;4.68;2.80;;;;;;;20.72;45.14;102405.25;5090343;28;20043;-75
2022/09/22 08:06:30;;;;;;;5.28;3.00;;;;;;;20.67;45.43;102400.88;5091907;28;20105;-77
2022/09/22 08:08:59;;;;;;;6.95;2.85;;;;;;;20.57;45.35;102399.97;5089966;28;20075;-75
2022/09/22 08:11:26;;;;;;;5.00;2.67;;;;;;;20.50;45.75;102398.19;5095132;28;20058;-75
2022/09/22 08:14:03;;;;;;;5.15;3.20;;;;;;;20.47;45.84;102398.16;5091502;28;20051;-74
2022/09/22 08:16:34;;;;;;;5.28;2.80;;;;;;;20.44;45.97;102401.63;5092975;28;20044;-78
2022/09/22 08:19:04;;;;;;;9.73;2.65;;;;;;;20.43;46.18;102391.19;5089760;28;20052;-76
2022/09/22 08:21:36;;;;;;;4.47;3.00;;;;;;;20.39;46.22;102399.91;5092808;28;20405;-78
2022/09/22 08:24:03;;;;;;;6.03;2.85;;;;;;;20.38;46.27;102390.28;5090846;28;20497;-78
2022/09/22 08:26:28;;;;;;;4.93;2.55;;;;;;;20.35;46.17;102393.78;5091289;28;20044;-77
2022/09/22 08:28:54;;;;;;;5.15;2.90;;;;;;;20.33;46.26;102391.13;5089819;28;20144;-78
2022/09/22 08:31:21;;;;;;;4.57;2.70;;;;;;;20.33;46.54;102392.88;5092561;28;20578;-78
2022/09/22 08:33:48;;;;;;;4.55;2.58;;;;;;;20.33;46.57;102395.50;5074063;28;20047;-77
2022/09/22 08:36:15;;;;;;;4.38;2.75;;;;;;;20.30;46.58;102388.53;5091737;28;20052;-77
2022/09/22 08:38:41;;;;;;;3.95;2.70;;;;;;;20.28;46.67;102385.03;5091320;28;20043;-77
2022/09/22 08:41:14;;;;;;;4.38;2.83;;;;;;;20.25;46.68;102385.03;5072550;28;20048;-77
2022/09/22 08:46:09;;;;;;;4.28;2.63;;;;;;;20.15;46.90;102385.84;5032553;28;1104930;-75
2022/09/22 08:54:07;;;;;;;4.25;2.30;;;;;;;20.14;47.00;102384.09;5092542;28;20482;-78
2022/09/22 08:56:39;;;;;;;4.55;2.67;;;;;;;20.14;47.01;102392.84;5093103;28;20040;-75
2022/09/22 08:59:22;;;;;;;3.90;2.20;;;;;;;20.13;46.93;102380.63;5089950;28;20499;-75
2022/09/22 09:02:06;;;;;;;4.68;2.28;;;;;;;20.16;47.02;102386.72;5091327;28;20309;-76
2022/09/22 09:07:35;;;;;;;3.97;2.33;;;;;;;20.10;47.21;102388.44;5090020;28;20068;-75
2022/09/22 09:10:26;;;;;;;5.53;2.50;;;;;;;20.10;47.22;102388.44;5071266;28;20106;-77
2022/09/22 09:12:57;;;;;;;3.20;1.98;;;;;;;20.10;47.06;102387.59;5070117;28;20079;-76
2022/09/22 09:18:15;;;;;;;4.45;2.15;;;;;;;20.06;46.96;102396.28;5089897;28;20052;-77
2022/09/22 09:23:17;;;;;;;3.35;2.30;;;;;;;20.04;47.14;102391.03;5098627;28;20044;-76
2022/09/22 09:28:19;;;;;;;3.55;2.38;;;;;;;20.01;47.39;102392.75;5098760;28;20048;-76
2022/09/22 09:30:51;;;;;;;3.17;1.90;;;;;;;20.03;47.43;102393.63;5090981;28;20040;-75
2022/09/22 09:33:30;;;;;;;3.45;2.17;;;;;;;20.02;47.34;102391.91;5087047;28;20047;-76
2022/09/22 09:35:57;;;;;;;3.72;2.10;;;;;;;19.98;47.49;102388.38;5081798;28;20055;-76
2022/09/22 09:38:34;;;;;;;5.10;2.13;;;;;;;19.97;47.50;102385.75;5060586;28;20505;-76
2022/09/22 09:41:27;;;;;;;4.40;2.00;;;;;;;19.96;47.62;102391.84;5089845;28;20055;-78
2022/09/22 09:43:55;;;;;;;2.80;1.92;;;;;;;19.94;47.70;102389.22;5091606;28;20052;-77
2022/09/22 09:46:29;;;;;;;3.15;2.10;;;;;;;19.91;47.68;102387.47;5090210;28;20036;-77
2022/09/22 09:49:16;;;;;;;3.78;1.85;;;;;;;19.91;47.66;102384.00;5088965;28;20052;-77
2022/09/22 09:54:13;;;;;;;3.97;1.80;;;;;;;19.90;47.68;102390.97;5089211;28;20044;-77
2022/09/22 10:01:56;;;;;;;3.28;1.80;;;;;;;19.89;47.96;102380.50;5097427;28;20081;-76
2022/09/22 10:04:27;;;;;;;5.90;2.00;;;;;;;19.89;47.78;102383.13;5089204;28;20043;-75
2022/09/22 10:06:53;;;;;;;3.70;2.15;;;;;;;19.88;47.78;102379.63;5087087;28;20499;-75
2022/09/22 10:09:23;;;;;;;2.75;1.73;;;;;;;19.88;47.72;102373.50;5091219;28;20504;-78
2022/09/22 10:12:00;;;;;;;3.40;1.80;;;;;;;19.87;47.75;102369.16;5088437;28;20052;-75
2022/09/22 10:14:30;;;;;;;3.08;1.98;;;;;;;19.87;47.80;102366.56;5075258;28;20048;-76
2022/09/22 10:16:55;;;;;;;3.03;1.70;;;;;;;19.88;47.88;102365.69;5090260;28;20032;-75
2022/09/22 10:19:24;;;;;;;4.78;2.10;;;;;;;19.84;47.94;102362.19;5072569;28;20087;-75
2022/09/22 10:21:49;;;;;;;2.60;1.60;;;;;;;19.83;48.01;102365.66;5087711;28;20043;-76
2022/09/22 10:24:27;;;;;;;2.70;1.80;;;;;;;19.84;47.77;102367.41;5088646;28;20052;-76
2022/09/22 10:26:56;;;;;;;2.72;1.80;;;;;;;19.82;48.02;102358.69;5088813;28;20096;-76
2022/09/22 10:29:21;;;;;;;2.20;1.63;;;;;;;19.86;48.02;102362.19;5073234;28;20052;-78
2022/09/22 10:32:16;;;;;;;3.60;1.83;;;;;;;19.85;47.92;102355.22;5071663;28;20363;-77
2022/09/22 10:37:17;;;;;;;3.13;1.67;;;;;;;19.84;47.93;102351.75;5089110;28;20047;-77
2022/09/22 10:42:32;;;;;;;2.78;1.55;;;;;;;19.87;47.98;102343.91;5096549;28;20056;-75
2022/09/22 10:45:02;;;;;;;3.75;1.77;;;;;;;19.87;47.91;102349.13;5088263;28;20036;-77
2022/09/22 10:53:44;;;;;;;4.28;1.95;;;;;;;19.87;47.99;102332.59;5088335;28;20765;-76
2022/09/22 10:56:34;;;;;;;3.22;1.73;;;;;;;19.88;48.03;102330.00;5096519;28;20724;-75
2022/09/22 10:59:21;;;;;;;3.28;1.90;;;;;;;19.88;47.96;102327.38;5087950;28;20055;-77
2022/09/22 11:02:20;;;;;;;2.97;1.80;;;;;;;19.87;48.07;102330.84;5089401;28;20048;-75
2022/09/22 11:12:15;;;;;;;2.80;1.58;;;;;;;19.89;47.76;102329.13;5086944;28;20039;-78
2022/09/22 11:13:45;;;;;;;3.35;1.77;;;;;;;19.89;47.97;102323.91;5089607;28;20051;-78
2022/09/22 11:16:26;;;;;;;2.08;1.27;;;;;;;19.90;48.23;102322.16;5097890;28;20075;-77
2022/09/22 11:19:04;;;;;;;2.83;1.52;;;;;;;19.89;47.89;102317.81;5081863;28;20105;-75
2022/09/22 11:24:15;;;;;;;3.13;1.30;;;;;;;19.91;47.54;102311.72;5089617;28;20876;-74
2022/09/22 11:29:33;;;;;;;2.38;1.40;;;;;;;19.93;47.78;102309.13;5058940;28;20091;-75
2022/09/22 11:32:16;;;;;;;2.53;1.50;;;;;;;19.93;47.76;102298.66;5083233;28;20063;-75
2022/09/22 11:37:25;;;;;;;2.33;1.50;;;;;;;19.94;47.81;102288.19;5087672;28;20082;-76
2022/09/22 11:40:16;;;;;;;2.55;1.25;;;;;;;19.93;47.88;102290.81;5079109;28;20049;-75
2022/09/22 11:45:19;;;;;;;3.00;1.30;;;;;;;19.93;47.72;102281.25;5083345;28;20043;-74
2022/09/22 11:50:38;;;;;;;2.97;1.53;;;;;;;19.95;47.91;102265.56;5079273;28;20044;-75
2022/09/22 11:53:23;;;;;;;2.20;1.20;;;;;;;19.96;47.83;102262.09;5087068;28;20512;-75
2022/09/22 11:56:15;;;;;;;2.20;1.30;;;;;;;19.95;47.89;102262.97;5079711;28;20059;-75
2022/09/22 11:58:43;;;;;;;2.28;1.20;;;;;;;19.96;47.82;102262.09;5077718;28;20051;-76
2022/09/22 12:01:18;;;;;;;2.47;1.35;;;;;;;19.97;47.72;102258.63;5057888;28;20056;-78
2022/09/22 12:06:14;;;;;;;2.53;1.17;;;;;;;19.99;47.90;102258.59;5087358;28;20040;-76
2022/09/22 12:11:13;;;;;;;2.03;1.15;;;;;;;20.02;47.97;102248.19;5087971;28;20044;-76
2022/09/22 12:13:42;;;;;;;2.63;1.33;;;;;;;20.03;47.76;102247.28;5089684;28;20048;-76
2022/09/22 12:16:21;;;;;;;2.15;1.15;;;;;;;20.03;47.96;102244.69;5069213;28;20055;-76
2022/09/22 12:19:12;;;;;;;2.55;1.25;;;;;;;20.03;47.88;102239.44;5088464;28;20056;-76
2022/09/22 12:24:10;;;;;;;1.48;1.15;;;;;;;20.04;47.89;102231.63;5087628;28;20048;-75
2022/09/22 12:26:39;;;;;;;2.40;1.30;;;;;;;20.05;47.99;102230.75;5047339;28;20052;-76
2022/09/22 12:29:23;;;;;;;2.92;1.30;;;;;;;20.05;47.90;102227.28;5069566;28;21340;-76
2022/09/22 12:31:52;;;;;;;1.52;1.00;;;;;;;20.06;47.81;102223.81;5091485;28;20052;-76
2022/09/22 12:34:30;;;;;;;2.55;1.40;;;;;;;20.05;47.83;102220.28;5069836;28;20144;-77
2022/09/22 12:37:10;;;;;;;1.85;1.10;;;;;;;20.09;47.74;102215.97;5090339;28;20044;-75
2022/09/22 12:39:41;;;;;;;3.10;1.20;;;;;;;20.09;47.86;102205.50;5074702;28;20048;-76
2022/09/22 12:42:18;;;;;;;2.22;1.25;;;;;;;20.09;47.85;102214.22;5090162;28;20148;-77
2022/09/22 12:47:21;;;;;;;2.00;1.08;;;;;;;20.12;47.90;102208.09;5090036;28;20539;-75
2022/09/22 12:49:50;;;;;;;1.65;1.30;;;;;;;20.11;47.98;102201.16;5073311;28;20044;-75
2022/09/22 12:52:40;;;;;;;1.50;1.17;;;;;;;20.10;47.93;102195.06;5073446;28;20059;-77
2022/09/22 12:55:37;;;;;;;1.77;1.13;;;;;;;20.11;47.87;102193.31;5090302;28;20060;-77
2022/09/22 12:58:22;;;;;;;1.70;1.00;;;;;;;20.12;47.95;102197.66;5054820;28;20052;-76
2022/09/22 13:00:52;;;;;;;1.40;1.10;;;;;;;20.12;47.80;102185.47;5051331;28;1146097;-77
2022/09/22 13:03:23;;;;;;;1.95;1.00;;;;;;;20.12;47.98;102181.97;5082165;28;20075;-78
2022/09/22 13:05:57;;;;;;;2.45;1.17;;;;;;;20.11;48.15;102182.84;5091154;28;20452;-76
2022/09/22 13:08:31;;;;;;;1.73;1.00;;;;;;;20.11;48.06;102177.63;5098562;28;20506;-77
2022/09/22 13:10:56;;;;;;;2.03;1.10;;;;;;;20.11;47.77;102175.88;5081512;28;20441;-79
2022/09/22 13:13:42;;;;;;;1.60;0.98;;;;;;;20.12;47.83;102180.25;5091066;28;20044;-78
2022/09/22 13:16:14;;;;;;;1.52;1.00;;;;;;;20.11;47.92;102183.72;5088283;28;20359;-78
2022/09/22 13:18:44;;;;;;;2.08;0.90;;;;;;;20.12;47.94;102172.41;5090562;28;20052;-76